Time;durP1;ratioP1;P1;durP2;ratioP2;P2;SDS_P1;SDS_P2;PMS_P1;PMS_P2;Temp;Humidity;BMP_temperature;BMP_pressure;BME280_temperature;BME280_humidity;BME280_pressure;Samples;Min_cycle;Max_cycle;Signal;HPM_P1;HPM_P2
2022/12/26 00:01:22;;;;;;;47.67;33.37;;;8.40;99.90;;;;;;4996936;28;20519;-79
2022/12/26 00:03:52;;;;;;;45.70;33.80;;;8.30;99.90;;;;;;4995320;28;20509;-78
2022/12/26 00:06:23;;;;;;;49.67;33.23;;;8.40;99.90;;;;;;4995426;28;20503;-79
2022/12/26 00:08:51;;;;;;;55.00;34.27;;;8.40;99.90;;;;;;4996591;28;20790;-78
2022/12/26 00:11:21;;;;;;;65.07;34.00;;;8.40;99.90;;;;;;4995302;28;20452;-78
2022/12/26 00:13:54;;;;;;;53.20;35.40;;;8.40;99.90;;;;;;4995101;28;20511;-76
2022/12/26 00:16:24;;;;;;;61.80;35.20;;;8.40;99.90;;;;;;4995996;28;20822;-77
2022/12/26 00:18:54;;;;;;;64.63;35.20;;;8.40;99.90;;;;;;4995976;28;20495;-76
2022/12/26 00:21:25;;;;;;;54.23;32.00;;;8.40;99.90;;;;;;4994953;28;20559;-78
2022/12/26 00:23:55;;;;;;;60.47;31.97;;;8.40;99.90;;;;;;4996035;28;20428;-78
2022/12/26 00:26:24;;;;;;;68.83;34.33;;;8.40;99.90;;;;;;4993996;28;20485;-78
2022/12/26 00:28:54;;;;;;;52.20;31.63;;;8.40;99.90;;;;;;4994744;28;20455;-78
2022/12/26 00:31:24;;;;;;;45.77;29.37;;;8.40;99.90;;;;;;4994877;28;20550;-78
2022/12/26 00:33:53;;;;;;;47.33;29.60;;;8.40;99.90;;;;;;4997591;28;20811;-78
2022/12/26 00:36:24;;;;;;;49.50;30.83;;;8.40;99.90;;;;;;4996927;28;20834;-78
2022/12/26 00:38:52;;;;;;;46.57;28.33;;;8.40;99.90;;;;;;4995015;28;20447;-79
2022/12/26 00:41:21;;;;;;;44.57;28.47;;;8.40;99.90;;;;;;4995323;28;20475;-78
2022/12/26 00:43:50;;;;;;;41.10;26.63;;;8.40;99.90;;;;;;4996298;28;20447;-78
2022/12/26 00:46:19;;;;;;;44.07;28.70;;;8.40;99.90;;;;;;4995477;28;20480;-78
2022/12/26 00:48:47;;;;;;;44.27;28.50;;;8.40;99.90;;;;;;4996459;28;20455;-78
2022/12/26 00:51:18;;;;;;;39.93;26.13;;;8.50;99.90;;;;;;4998943;28;20462;-79
2022/12/26 00:53:46;;;;;;;44.00;27.40;;;8.40;99.90;;;;;;4999450;28;20454;-78
2022/12/26 00:56:14;;;;;;;43.30;28.77;;;8.40;99.90;;;;;;4999116;28;20477;-79
2022/12/26 00:58:42;;;;;;;39.20;25.13;;;8.40;99.90;;;;;;4999058;28;20446;-77
2022/12/26 01:01:15;;;;;;;53.77;30.20;;;8.50;99.90;;;;;;4997811;28;20489;-77
2022/12/26 01:03:46;;;;;;;43.67;28.60;;;8.50;99.90;;;;;;4998014;28;20448;-78
2022/12/26 01:06:15;;;;;;;43.77;28.23;;;8.50;99.90;;;;;;4998997;28;20884;-79
2022/12/26 01:08:45;;;;;;;41.27;26.63;;;8.50;99.90;;;;;;4998453;28;20457;-78
2022/12/26 01:11:38;;;;;;;40.70;27.10;;;8.50;99.90;;;;;;5000948;28;20494;-79
2022/12/26 01:14:03;;;;;;;46.90;28.27;;;8.50;99.90;;;;;;4997958;28;20555;-79
2022/12/26 01:16:32;;;;;;;48.23;28.63;;;8.50;99.90;;;;;;4999456;28;20468;-78
2022/12/26 01:19:01;;;;;;;45.87;27.93;;;8.50;99.90;;;;;;4999623;28;20456;-77
2022/12/26 01:21:30;;;;;;;58.40;29.20;;;8.50;99.90;;;;;;5000108;28;20475;-78
2022/12/26 01:23:59;;;;;;;46.07;27.80;;;8.50;99.90;;;;;;4999934;28;20463;-79
2022/12/26 01:26:27;;;;;;;45.70;28.17;;;8.50;99.90;;;;;;4997997;28;20567;-78
2022/12/26 01:28:56;;;;;;;47.77;28.10;;;8.50;99.90;;;;;;4999043;28;20436;-78
2022/12/26 01:31:24;;;;;;;47.53;27.13;;;8.50;99.90;;;;;;5005224;28;20446;-79
2022/12/26 01:33:52;;;;;;;42.80;27.70;;;8.50;99.90;;;;;;4998416;28;20478;-78
2022/12/26 01:36:20;;;;;;;50.67;30.10;;;8.50;99.90;;;;;;4999399;28;20499;-79
2022/12/26 01:38:49;;;;;;;57.63;32.27;;;8.50;99.90;;;;;;4999029;28;20463;-77
2022/12/26 01:41:19;;;;;;;51.57;29.37;;;8.50;99.90;;;;;;4998767;28;20445;-77
2022/12/26 01:43:56;;;;;;;62.40;31.27;;;8.50;99.90;;;;;;4997817;28;20469;-79
2022/12/26 01:46:30;;;;;;;49.57;29.73;;;8.50;99.90;;;;;;4997751;28;20539;-76
2022/12/26 01:49:01;;;;;;;54.30;30.07;;;8.50;99.90;;;;;;4998613;28;20569;-79
2022/12/26 01:51:33;;;;;;;64.07;31.13;;;8.50;99.90;;;;;;4999992;28;20523;-78
2022/12/26 01:54:05;;;;;;;61.03;31.63;;;8.50;99.90;;;;;;4997955;28;20445;-78
2022/12/26 01:56:55;;;;;;;60.57;32.10;;;8.50;99.90;;;;;;4997823;28;20443;-78
2022/12/26 01:59:29;;;;;;;72.73;35.17;;;8.50;99.90;;;;;;4999724;28;20953;-77
2022/12/26 02:02:00;;;;;;;83.17;37.93;;;8.50;99.90;;;;;;4998828;28;20459;-78
2022/12/26 02:07:19;;;;;;;99.70;37.10;;;8.50;99.90;;;;;;4996696;28;20491;-78
2022/12/26 02:09:47;;;;;;;91.90;38.00;;;8.50;99.90;;;;;;4996333;28;20452;-78
2022/12/26 02:12:21;;;;;;;74.13;38.40;;;8.50;99.90;;;;;;4996826;28;20448;-78
2022/12/26 02:15:06;;;;;;;98.47;40.80;;;8.50;99.90;;;;;;4996924;28;21011;-78
2022/12/26 02:17:34;;;;;;;112.90;42.40;;;8.50;99.90;;;;;;4997958;28;20466;-78
2022/12/26 02:20:14;;;;;;;96.47;41.43;;;8.50;99.90;;;;;;4996955;28;20459;-79
2022/12/26 02:23:16;;;;;;;93.93;41.63;;;8.50;99.90;;;;;;4997135;28;20476;-78
2022/12/26 02:26:23;;;;;;;104.33;42.03;;;8.50;99.90;;;;;;4997613;28;20840;-78
2022/12/26 02:29:16;;;;;;;93.10;42.47;;;8.50;99.90;;;;;;4998157;28;20520;-78
2022/12/26 02:31:55;;;;;;;91.33;41.87;;;8.60;99.90;;;;;;4995859;28;20454;-77
2022/12/26 02:34:27;;;;;;;81.87;40.27;;;8.50;99.90;;;;;;4997375;28;20477;-77
2022/12/26 02:37:14;;;;;;;83.53;40.27;;;8.50;99.90;;;;;;4996244;28;20834;-79
2022/12/26 02:40:01;;;;;;;88.53;38.87;;;8.50;99.90;;;;;;4996056;28;20556;-79
2022/12/26 02:42:39;;;;;;;82.47;40.00;;;8.50;99.90;;;;;;4995697;28;20898;-77
2022/12/26 02:48:12;;;;;;;65.97;36.27;;;8.60;99.90;;;;;;4996728;28;20456;-79
2022/12/26 03:14:07;;;;;;;55.53;33.37;;;8.60;99.90;;;;;;4996777;28;20417;-78
2022/12/26 03:19:23;;;;;;;52.20;32.17;;;8.60;99.90;;;;;;4998347;28;20467;-78
2022/12/26 03:21:53;;;;;;;46.53;30.80;;;8.60;99.90;;;;;;4997380;28;20953;-78
2022/12/26 03:24:22;;;;;;;54.20;31.90;;;8.60;99.90;;;;;;4996756;28;21087;-77
2022/12/26 03:26:53;;;;;;;44.53;29.50;;;8.60;99.90;;;;;;4998569;28;20464;-77
2022/12/26 03:32:11;;;;;;;48.10;29.67;;;8.60;99.90;;;;;;4998391;28;20425;-77
2022/12/26 03:34:44;;;;;;;45.90;29.40;;;8.60;99.90;;;;;;4998263;28;20464;-78
2022/12/26 03:37:34;;;;;;;49.30;30.97;;;8.60;99.90;;;;;;4999493;28;20803;-78
2022/12/26 04:20:48;;;;;;;39.80;26.03;;;8.70;99.90;;;;;;4997427;28;20459;-78
2022/12/26 04:46:21;;;;;;;45.97;31.30;;;8.80;99.90;;;;;;5006397;28;20534;-78
2022/12/26 04:51:38;;;;;;;53.30;34.50;;;8.80;99.90;;;;;;5004607;28;20452;-77
2022/12/26 04:54:07;;;;;;;49.40;32.07;;;8.70;99.90;;;;;;5005368;28;20551;-78
2022/12/26 04:56:35;;;;;;;43.73;27.27;;;8.80;99.90;;;;;;5005476;28;21004;-77
2022/12/26 04:59:04;;;;;;;56.93;37.33;;;8.80;99.90;;;;;;5004872;28;20455;-78
2022/12/26 05:10:15;;;;;;;56.30;35.77;;;8.80;99.90;;;;;;4948429;29;20463;-78
2022/12/26 05:12:43;;;;;;;52.90;35.30;;;8.90;99.90;;;;;;4994190;28;20523;-79
2022/12/26 05:15:12;;;;;;;58.00;35.50;;;8.90;99.90;;;;;;5003810;28;21075;-79
2022/12/26 05:28:56;;;;;;;49.70;33.57;;;8.90;99.90;;;;;;5003819;28;20536;-78
2022/12/26 05:31:24;;;;;;;42.07;31.70;;;8.90;99.90;;;;;;5003250;28;20451;-78
2022/12/26 05:34:05;;;;;;;46.73;33.30;;;8.90;99.90;;;;;;5005064;28;20436;-78
2022/12/26 05:36:37;;;;;;;42.17;31.20;;;8.90;99.90;;;;;;5000029;28;20526;-78
2022/12/26 05:39:07;;;;;;;49.03;31.87;;;8.90;99.90;;;;;;5001909;28;20424;-78
2022/12/26 05:41:36;;;;;;;47.03;33.47;;;8.90;99.90;;;;;;5000115;28;20456;-78
2022/12/26 05:44:05;;;;;;;44.67;30.97;;;8.90;99.90;;;;;;4999749;28;20507;-78
2022/12/26 05:46:33;;;;;;;51.77;34.03;;;8.90;99.90;;;;;;4998502;28;20537;-77
2022/12/26 05:49:03;;;;;;;46.97;33.80;;;8.90;99.90;;;;;;4999510;28;20544;-77
2022/12/26 05:51:33;;;;;;;42.93;31.93;;;9.00;99.90;;;;;;4999286;28;20421;-77
2022/12/26 05:54:02;;;;;;;52.73;33.37;;;8.90;99.90;;;;;;4997904;28;21030;-77
2022/12/26 05:56:30;;;;;;;49.40;32.83;;;9.00;99.90;;;;;;5004767;28;20463;-78
2022/12/26 05:59:00;;;;;;;50.37;32.60;;;9.00;99.90;;;;;;5002998;28;20449;-78
2022/12/26 06:01:29;;;;;;;47.93;31.77;;;8.90;99.90;;;;;;5001839;28;20535;-78
2022/12/26 06:03:59;;;;;;;42.90;31.50;;;8.90;99.90;;;;;;4999592;28;20496;-78
2022/12/26 06:06:29;;;;;;;50.70;32.47;;;9.00;99.90;;;;;;4999878;28;20536;-77
2022/12/26 06:08:58;;;;;;;52.90;33.17;;;8.90;99.90;;;;;;4998517;28;20459;-77
2022/12/26 06:11:27;;;;;;;53.10;33.93;;;8.90;99.90;;;;;;4998271;28;20461;-77
2022/12/26 06:13:55;;;;;;;52.33;34.57;;;8.90;99.90;;;;;;4998172;28;20484;-78
2022/12/26 06:16:24;;;;;;;55.17;35.90;;;9.00;99.90;;;;;;4999638;28;20456;-77
2022/12/26 06:18:54;;;;;;;62.37;36.40;;;9.00;99.90;;;;;;4997919;28;20829;-77
2022/12/26 06:21:23;;;;;;;56.03;36.27;;;9.00;99.90;;;;;;4997912;28;20930;-77
2022/12/26 06:23:53;;;;;;;56.30;35.60;;;8.90;99.90;;;;;;4997555;28;20476;-77
2022/12/26 06:26:21;;;;;;;58.67;38.13;;;9.00;99.90;;;;;;4998020;28;20469;-77
2022/12/26 06:28:49;;;;;;;60.83;37.30;;;9.00;99.90;;;;;;4999725;28;20420;-78
2022/12/26 06:31:20;;;;;;;64.50;38.57;;;9.00;99.90;;;;;;4999384;28;20477;-77
2022/12/26 06:33:50;;;;;;;58.60;36.90;;;9.00;99.90;;;;;;4997942;28;20459;-77
2022/12/26 06:36:20;;;;;;;58.90;36.37;;;9.00;99.90;;;;;;4997959;28;20472;-77
2022/12/26 06:38:49;;;;;;;55.00;36.90;;;9.00;99.90;;;;;;4997716;28;20790;-77
2022/12/26 06:41:21;;;;;;;61.20;37.90;;;9.00;99.90;;;;;;4998979;28;20958;-78
2022/12/26 06:43:49;;;;;;;63.77;36.70;;;9.00;99.90;;;;;;4999791;28;20440;-77
2022/12/26 06:46:19;;;;;;;61.20;38.20;;;9.00;99.90;;;;;;4997462;28;20571;-78
2022/12/26 06:48:48;;;;;;;56.13;35.93;;;9.00;99.90;;;;;;4997676;28;20529;-77
2022/12/26 06:51:18;;;;;;;58.40;35.83;;;9.00;99.90;;;;;;5004013;28;20461;-78
2022/12/26 06:53:46;;;;;;;57.73;35.20;;;9.00;99.90;;;;;;5004730;28;20479;-78
2022/12/26 06:56:17;;;;;;;51.47;35.20;;;9.10;99.90;;;;;;5002641;28;20464;-78
2022/12/26 06:58:47;;;;;;;53.40;34.40;;;9.00;99.90;;;;;;5003877;28;20469;-78
2022/12/26 07:01:17;;;;;;;52.10;32.53;;;9.00;99.90;;;;;;5001861;28;20450;-78
2022/12/26 07:03:46;;;;;;;56.00;35.23;;;9.10;99.90;;;;;;5001704;28;20443;-78
2022/12/26 07:06:23;;;;;;;54.57;34.77;;;9.10;99.90;;;;;;5000204;28;20547;-78
2022/12/26 07:08:52;;;;;;;58.10;36.63;;;9.10;99.90;;;;;;5000120;28;20460;-78
2022/12/26 07:11:24;;;;;;;50.87;34.80;;;9.10;99.90;;;;;;5001385;28;20433;-78
2022/12/26 07:13:54;;;;;;;48.60;33.37;;;9.10;99.90;;;;;;5000137;28;20524;-77
2022/12/26 07:16:23;;;;;;;49.37;32.70;;;9.10;99.90;;;;;;4999450;28;20476;-78
2022/12/26 07:18:53;;;;;;;52.83;33.17;;;9.10;99.90;;;;;;5000373;28;20476;-78
2022/12/26 07:21:22;;;;;;;48.67;34.53;;;9.10;99.90;;;;;;4999597;28;20450;-78
2022/12/26 07:23:50;;;;;;;47.27;32.03;;;9.10;99.90;;;;;;4998114;28;20478;-78
2022/12/26 07:26:19;;;;;;;48.00;32.73;;;9.10;99.90;;;;;;4997416;28;20483;-79
2022/12/26 07:28:47;;;;;;;45.00;30.80;;;9.10;99.90;;;;;;4999130;28;20417;-78
2022/12/26 07:31:18;;;;;;;49.83;33.07;;;9.10;99.90;;;;;;4999219;28;20521;-78
2022/12/26 07:33:48;;;;;;;46.53;31.03;;;9.10;99.90;;;;;;5000442;28;20526;-77
2022/12/26 07:36:17;;;;;;;47.90;29.77;;;9.10;99.90;;;;;;5000182;28;20828;-78
2022/12/26 07:38:45;;;;;;;44.37;28.43;;;9.10;99.90;;;;;;4997076;28;21001;-78
2022/12/26 07:44:00;;;;;;;47.70;29.60;;;9.10;99.90;;;;;;4996311;28;20951;-78
2022/12/26 07:46:30;;;;;;;42.00;28.23;;;9.10;99.90;;;;;;4997872;28;20489;-78
2022/12/26 07:48:59;;;;;;;44.13;29.00;;;9.10;99.90;;;;;;4997538;28;20469;-77
2022/12/26 07:51:27;;;;;;;44.30;29.20;;;9.10;99.90;;;;;;4996891;28;20455;-79
2022/12/26 07:53:56;;;;;;;46.13;31.57;;;9.10;99.90;;;;;;4997390;28;20451;-79
2022/12/26 07:56:24;;;;;;;48.37;28.57;;;9.10;99.90;;;;;;4996217;28;20467;-78
2022/12/26 07:58:52;;;;;;;43.20;29.90;;;9.10;99.90;;;;;;4995411;28;20452;-77
2022/12/26 08:01:20;;;;;;;43.77;28.50;;;9.10;99.90;;;;;;4996289;28;20449;-77
2022/12/26 08:03:51;;;;;;;42.83;29.40;;;9.10;99.90;;;;;;4997237;28;20453;-78
2022/12/26 08:06:19;;;;;;;43.73;29.00;;;9.00;99.90;;;;;;4998373;28;20471;-78
2022/12/26 08:08:48;;;;;;;45.40;29.13;;;9.10;99.90;;;;;;5002555;28;20448;-78
2022/12/26 08:11:20;;;;;;;43.03;28.13;;;9.10;99.90;;;;;;5004148;28;20451;-78
2022/12/26 08:13:49;;;;;;;44.80;29.23;;;9.00;99.90;;;;;;5002114;28;20481;-78
2022/12/26 08:16:17;;;;;;;40.73;28.07;;;9.10;99.90;;;;;;4999389;28;20460;-78
2022/12/26 08:18:45;;;;;;;43.67;29.83;;;9.10;99.90;;;;;;4995667;28;20460;-77
2022/12/26 08:21:15;;;;;;;40.57;28.67;;;9.10;99.90;;;;;;4997273;28;20433;-78
2022/12/26 08:23:44;;;;;;;41.60;29.17;;;9.10;99.90;;;;;;4996979;28;20439;-78
2022/12/26 08:26:19;;;;;;;41.10;28.00;;;9.00;99.90;;;;;;4996274;28;20481;-77
2022/12/26 08:28:47;;;;;;;39.20;28.03;;;9.10;99.90;;;;;;4998440;28;20487;-78
2022/12/26 08:31:15;;;;;;;41.90;28.00;;;9.10;99.90;;;;;;4996691;28;20538;-78
2022/12/26 08:33:44;;;;;;;34.23;25.37;;;9.10;99.90;;;;;;4997740;28;20475;-78
2022/12/26 08:36:15;;;;;;;40.70;27.40;;;9.10;99.90;;;;;;4996818;28;20480;-78
2022/12/26 08:38:46;;;;;;;34.47;27.13;;;9.10;99.90;;;;;;4996005;28;20984;-78
2022/12/26 08:41:16;;;;;;;39.07;27.67;;;9.10;99.90;;;;;;4997907;28;20483;-77
2022/12/26 08:43:48;;;;;;;36.00;25.77;;;9.10;99.90;;;;;;4997553;28;20437;-78
2022/12/26 08:46:37;;;;;;;39.23;28.60;;;9.10;99.90;;;;;;4997317;28;20981;-78
2022/12/26 08:49:05;;;;;;;38.43;26.90;;;9.10;99.90;;;;;;4995993;28;20452;-78
2022/12/26 08:51:33;;;;;;;37.20;27.60;;;9.10;99.90;;;;;;4997987;28;20454;-78
2022/12/26 08:54:02;;;;;;;37.57;28.00;;;9.10;99.90;;;;;;4996502;28;20460;-78
2022/12/26 08:56:31;;;;;;;39.57;27.20;;;9.10;99.90;;;;;;4997939;28;20476;-78
2022/12/26 08:58:59;;;;;;;38.20;27.80;;;9.10;99.90;;;;;;4995455;28;20895;-78
2022/12/26 09:01:29;;;;;;;41.00;28.77;;;9.10;99.90;;;;;;4996760;28;20810;-78
2022/12/26 09:03:59;;;;;;;37.17;26.80;;;9.10;99.90;;;;;;4995316;28;20523;-77
2022/12/26 09:06:29;;;;;;;40.90;28.87;;;9.10;99.90;;;;;;4994781;28;20883;-77
2022/12/26 09:08:59;;;;;;;36.20;26.87;;;9.10;99.90;;;;;;4996014;28;20447;-78
2022/12/26 09:11:29;;;;;;;38.10;27.60;;;9.10;99.90;;;;;;4995690;28;20448;-78
2022/12/26 09:13:59;;;;;;;41.07;28.40;;;9.10;99.90;;;;;;4999485;28;20775;-77
2022/12/26 09:16:30;;;;;;;44.60;29.93;;;9.10;99.90;;;;;;4997920;28;20570;-77
2022/12/26 09:19:05;;;;;;;37.90;28.10;;;9.10;99.90;;;;;;5000025;28;20432;-78
2022/12/26 09:21:34;;;;;;;40.33;28.50;;;9.10;99.90;;;;;;4998421;28;20455;-77
2022/12/26 09:24:03;;;;;;;41.37;30.00;;;9.10;99.90;;;;;;4999116;28;20441;-77
2022/12/26 09:26:33;;;;;;;39.53;29.83;;;9.10;99.90;;;;;;4997073;28;20542;-78
2022/12/26 09:29:02;;;;;;;40.30;29.73;;;9.10;99.90;;;;;;4997820;28;20451;-77
2022/12/26 09:31:32;;;;;;;36.73;28.43;;;9.10;99.90;;;;;;4997890;28;20798;-77
2022/12/26 09:34:03;;;;;;;36.37;27.57;;;9.10;99.90;;;;;;4997944;28;20441;-77
2022/12/26 09:36:34;;;;;;;42.00;30.40;;;9.20;99.90;;;;;;4997427;28;20482;-77
2022/12/26 09:39:02;;;;;;;38.60;28.67;;;9.10;99.90;;;;;;4997420;28;20451;-78
2022/12/26 09:41:53;;;;;;;37.90;29.00;;;9.10;99.90;;;;;;4997220;28;20456;-78
2022/12/26 09:44:28;;;;;;;35.00;27.77;;;9.20;99.90;;;;;;4999229;28;20523;-78
2022/12/26 09:47:07;;;;;;;35.73;27.00;;;9.20;99.90;;;;;;4996921;28;20535;-77
2022/12/26 09:49:42;;;;;;;35.73;27.50;;;9.20;99.90;;;;;;4996776;28;20436;-77
2022/12/26 09:52:15;;;;;;;34.10;27.90;;;9.20;99.90;;;;;;4995398;28;20987;-77
2022/12/26 09:54:49;;;;;;;31.57;24.97;;;9.20;99.90;;;;;;4995377;28;20900;-77
2022/12/26 09:57:22;;;;;;;30.50;26.40;;;9.20;99.90;;;;;;4997070;28;20456;-77
2022/12/26 09:59:54;;;;;;;30.80;24.07;;;9.30;99.90;;;;;;4995177;28;20432;-77
2022/12/26 10:02:25;;;;;;;30.37;24.60;;;9.30;99.90;;;;;;4996766;28;20516;-77
2022/12/26 10:04:54;;;;;;;29.87;24.60;;;9.30;99.90;;;;;;4995254;28;20841;-77
2022/12/26 10:07:28;;;;;;;27.77;22.90;;;9.30;99.90;;;;;;4995327;28;20568;-77
2022/12/26 10:10:10;;;;;;;25.67;21.60;;;9.30;99.90;;;;;;4995555;28;20856;-77
2022/12/26 10:12:47;;;;;;;28.70;23.60;;;9.30;99.90;;;;;;5000919;28;20542;-78
2022/12/26 10:15:31;;;;;;;22.20;19.80;;;9.40;99.90;;;;;;4998560;28;20922;-78
2022/12/26 10:18:11;;;;;;;23.67;20.03;;;9.40;99.90;;;;;;5000496;28;20439;-77
2022/12/26 10:20:51;;;;;;;27.00;21.33;;;9.40;99.90;;;;;;5000373;28;20457;-77
2022/12/26 10:23:32;;;;;;;20.00;17.90;;;9.40;99.90;;;;;;4998871;28;20536;-77
2022/12/26 10:26:07;;;;;;;22.13;19.67;;;9.50;99.90;;;;;;4999671;28;21097;-78
2022/12/26 10:28:44;;;;;;;19.83;17.73;;;9.50;99.90;;;;;;4998770;28;20444;-77
2022/12/26 10:31:18;;;;;;;19.47;17.30;;;9.50;99.90;;;;;;4998214;28;20511;-77
2022/12/26 10:33:50;;;;;;;17.93;16.10;;;9.50;99.90;;;;;;5000138;28;20452;-78
2022/12/26 10:36:29;;;;;;;19.60;15.27;;;9.60;99.90;;;;;;4998920;28;20456;-77
2022/12/26 10:38:59;;;;;;;13.60;11.33;;;9.60;99.90;;;;;;4995023;28;20444;-76
2022/12/26 10:41:35;;;;;;;18.53;14.83;;;9.60;99.90;;;;;;4994994;28;20491;-76
2022/12/26 10:44:05;;;;;;;15.00;13.50;;;9.70;99.90;;;;;;4997008;28;20479;-77
2022/12/26 10:47:01;;;;;;;16.13;12.60;;;9.70;99.90;;;;;;4996386;28;20469;-77
2022/12/26 10:49:30;;;;;;;17.47;15.17;;;9.70;99.90;;;;;;4995053;28;20528;-77
2022/12/26 10:52:01;;;;;;;15.83;13.50;;;9.70;99.90;;;;;;4997202;28;20463;-77
2022/12/26 10:54:30;;;;;;;15.77;13.23;;;9.80;99.90;;;;;;4996946;28;20433;-77
2022/12/26 10:57:00;;;;;;;14.13;12.30;;;9.80;99.90;;;;;;4996351;28;20448;-77
2022/12/26 10:59:41;;;;;;;18.93;13.10;;;9.80;99.90;;;;;;4996525;28;20420;-77
2022/12/26 11:02:24;;;;;;;15.80;12.67;;;9.80;99.90;;;;;;4994668;28;20866;-77
2022/12/26 11:05:06;;;;;;;14.93;12.10;;;9.90;99.90;;;;;;4995259;28;20480;-77
2022/12/26 11:07:51;;;;;;;12.90;11.50;;;9.90;99.90;;;;;;5001161;28;20467;-78
2022/12/26 11:10:21;;;;;;;13.30;11.23;;;9.90;99.90;;;;;;4999872;28;20473;-77
2022/12/26 11:12:52;;;;;;;14.90;11.33;;;9.90;99.90;;;;;;5001216;28;20444;-77
2022/12/26 11:15:31;;;;;;;12.20;10.53;;;9.90;99.90;;;;;;4996205;28;20499;-77
2022/12/26 11:18:09;;;;;;;12.37;11.10;;;9.90;99.90;;;;;;4996477;28;20437;-78
2022/12/26 11:20:38;;;;;;;14.13;11.37;;;9.90;99.90;;;;;;4998032;28;20427;-77
2022/12/26 11:23:25;;;;;;;12.33;9.90;;;9.90;99.90;;;;;;4995775;28;20507;-77
2022/12/26 11:25:54;;;;;;;13.90;11.40;;;9.90;99.90;;;;;;4994262;28;20515;-76
2022/12/26 11:28:29;;;;;;;11.23;10.13;;;9.90;99.90;;;;;;4995912;28;20504;-77
2022/12/26 11:31:00;;;;;;;10.87;9.77;;;9.90;99.90;;;;;;4996040;28;20442;-76
2022/12/26 11:33:32;;;;;;;11.50;10.40;;;10.00;99.90;;;;;;4998231;28;20460;-77
2022/12/26 11:36:16;;;;;;;10.00;9.10;;;9.90;99.90;;;;;;4996830;28;20572;-78
2022/12/26 11:49:28;;;;;;;11.07;10.00;;;10.00;99.90;;;;;;4994710;28;20461;-77
2022/12/26 11:55:36;;;;;;;9.63;8.10;;;9.90;99.90;;;;;;4996944;28;20468;-76
2022/12/26 11:58:34;;;;;;;10.30;9.27;;;9.90;99.90;;;;;;4995076;28;20528;-77
2022/12/26 12:01:29;;;;;;;9.70;8.70;;;10.00;99.90;;;;;;4994463;28;20433;-77
2022/12/26 12:04:27;;;;;;;9.53;8.10;;;9.90;99.90;;;;;;4994556;28;20459;-77
2022/12/26 12:07:24;;;;;;;8.30;7.50;;;10.00;99.90;;;;;;4994267;28;20457;-77
2022/12/26 12:10:47;;;;;;;9.87;7.23;;;10.00;99.90;;;;;;4992916;28;20448;-77
2022/12/26 12:20:25;;;;;;;5.00;3.10;;;10.10;99.90;;;;;;4995874;28;20463;-77
2022/12/26 12:23:32;;;;;;;4.10;2.53;;;10.10;99.90;;;;;;5000063;28;20500;-75
2022/12/26 12:26:31;;;;;;;4.80;2.60;;;10.10;99.90;;;;;;4997326;28;20472;-76
2022/12/26 12:29:29;;;;;;;3.43;2.00;;;10.00;99.90;;;;;;4994019;28;20479;-77
2022/12/26 12:32:17;;;;;;;6.93;2.50;;;10.00;99.90;;;;;;4994336;28;20459;-77
2022/12/26 12:35:37;;;;;;;7.60;1.90;;;10.00;99.90;;;;;;4994383;28;20465;-77
2022/12/26 12:38:44;;;;;;;5.97;1.60;;;9.90;99.90;;;;;;4992904;28;20784;-77
2022/12/26 12:41:39;;;;;;;4.17;1.50;;;9.90;99.90;;;;;;4993274;28;20480;-77
2022/12/26 12:44:49;;;;;;;4.53;1.47;;;9.80;99.90;;;;;;4970479;28;20829;-77
2022/12/26 12:51:37;;;;;;;3.40;1.20;;;9.70;99.90;;;;;;4995045;28;20900;-78
2022/12/26 12:54:47;;;;;;;3.60;1.10;;;9.60;99.90;;;;;;4996637;28;20847;-77
2022/12/26 12:57:48;;;;;;;4.50;1.40;;;9.50;99.90;;;;;;4998376;28;20914;-77
2022/12/26 13:00:35;;;;;;;3.70;1.00;;;9.50;99.90;;;;;;4996670;28;20444;-77
2022/12/26 13:06:44;;;;;;;6.00;1.80;;;9.40;99.90;;;;;;4996775;28;20508;-77
2022/12/26 13:09:43;;;;;;;5.17;1.20;;;9.40;99.90;;;;;;4996037;28;20993;-77
2022/12/26 13:12:31;;;;;;;4.87;1.37;;;9.40;99.90;;;;;;4996140;28;21024;-77
2022/12/26 13:15:18;;;;;;;9.73;2.20;;;9.30;99.90;;;;;;4997103;28;20966;-76
2022/12/26 13:18:16;;;;;;;;;;;;;;;;;;;;;
2022/12/26 13:21:11;;;;;;;3.13;1.27;;;9.20;99.90;;;;;;4996128;28;20976;-77
2022/12/26 13:27:25;;;;;;;5.13;1.40;;;9.10;99.90;;;;;;4996505;28;20505;-77
2022/12/26 13:30:36;;;;;;;3.77;1.40;;;8.90;99.90;;;;;;4997792;28;20436;-77
2022/12/26 13:33:15;;;;;;;6.53;1.83;;;8.80;99.90;;;;;;4995755;28;20448;-77
2022/12/26 13:39:41;;;;;;;5.63;1.93;;;8.60;99.90;;;;;;4996840;28;20440;-76
2022/12/26 13:53:18;;;;;;;4.30;1.20;;;8.30;99.90;;;;;;4983473;28;20544;-76
2022/12/26 13:56:30;;;;;;;6.00;1.90;;;8.30;99.90;;;;;;4995918;28;20479;-76
2022/12/26 13:59:42;;;;;;;6.33;1.40;;;8.20;99.90;;;;;;4996363;28;20434;-77
2022/12/26 14:03:07;;;;;;;3.50;1.40;;;8.20;99.90;;;;;;4995138;28;20451;-76
2022/12/26 14:06:19;;;;;;;5.60;2.00;;;8.20;99.90;;;;;;4996976;28;20470;-77
2022/12/26 14:09:37;;;;;;;6.23;1.90;;;8.10;99.90;;;;;;4994811;28;20477;-77
2022/12/26 14:12:49;;;;;;;11.70;2.60;;;8.10;99.90;;;;;;4996561;28;20439;-77
2022/12/26 14:15:44;;;;;;;5.47;2.27;;;8.00;99.90;;;;;;4986704;28;20490;-76
2022/12/26 14:21:49;;;;;;;6.80;2.43;;;7.90;99.90;;;;;;4995775;28;20443;-77
2022/12/26 14:27:40;;;;;;;7.10;3.40;;;7.90;99.90;;;;;;4994823;28;20474;-77
2022/12/26 14:30:29;;;;;;;7.60;2.03;;;7.80;99.90;;;;;;4995696;28;20555;-76
2022/12/26 14:33:29;;;;;;;7.73;2.70;;;7.80;99.90;;;;;;4994672;28;20444;-76
2022/12/26 14:36:52;;;;;;;8.23;2.60;;;7.80;99.90;;;;;;4996116;28;20633;-75
2022/12/26 14:39:39;;;;;;;6.60;2.83;;;7.80;99.90;;;;;;4996482;28;20183;-77
2022/12/26 14:45:52;;;;;;;6.43;2.30;;;7.80;99.90;;;;;;4995793;28;20826;-77
2022/12/26 14:54:54;;;;;;;6.03;2.53;;;7.60;99.90;;;;;;5104930;28;20230;-77
2022/12/26 14:57:53;;;;;;;11.80;3.30;;;7.60;99.90;;;;;;5037504;28;20444;-76
2022/12/26 15:01:33;;;;;;;10.10;2.40;;;7.60;99.90;;;;;;5090930;28;20445;-76
2022/12/26 15:04:27;;;;;;;8.50;2.57;;;7.50;99.90;;;;;;5091502;28;20942;-78
2022/12/26 15:14:40;;;;;;;9.90;3.23;;;7.40;99.90;;;;;;5041327;28;20443;-77
2022/12/26 15:17:47;;;;;;;15.47;4.00;;;7.30;99.90;;;;;;5089692;28;20450;-75
2022/12/26 15:21:06;;;;;;;9.17;3.00;;;7.30;99.90;;;;;;5091256;28;20774;-77
2022/12/26 15:24:04;;;;;;;12.27;4.20;;;7.30;99.90;;;;;;4993766;28;20472;-77
2022/12/26 15:27:54;;;;;;;16.80;4.20;;;7.30;99.90;;;;;;5073492;28;20434;-77
2022/12/26 15:31:03;;;;;;;11.93;3.63;;;7.30;99.90;;;;;;5056291;28;20480;-77
2022/12/26 15:36:50;;;;;;;10.20;3.60;;;7.20;99.90;;;;;;5073091;28;20474;-77
2022/12/26 15:39:50;;;;;;;11.40;3.90;;;7.10;99.90;;;;;;5089534;28;20454;-78
2022/12/26 15:42:44;;;;;;;11.60;3.87;;;7.00;99.90;;;;;;5072681;28;20493;-77
2022/12/26 15:45:49;;;;;;;16.27;3.60;;;7.00;99.90;;;;;;5089374;28;20476;-75
2022/12/26 15:49:02;;;;;;;9.30;3.10;;;7.00;99.90;;;;;;5089215;28;20458;-75
2022/12/26 15:52:10;;;;;;;12.50;3.57;;;6.90;99.90;;;;;;5089736;28;20471;-76
2022/12/26 15:55:28;;;;;;;13.77;3.77;;;6.90;99.90;;;;;;5057213;28;20501;-76
2022/12/26 15:58:05;;;;;;;11.83;3.60;;;6.80;99.90;;;;;;5071693;28;20816;-77
2022/12/26 16:00:38;;;;;;;9.30;3.70;;;6.80;99.90;;;;;;5071424;28;20441;-76
2022/12/26 16:03:25;;;;;;;8.60;3.83;;;6.70;99.90;;;;;;5076602;28;20454;-76
2022/12/26 16:06:00;;;;;;;16.87;4.50;;;6.70;99.90;;;;;;5058921;28;20833;-78
2022/12/26 16:08:51;;;;;;;8.97;3.73;;;6.70;99.90;;;;;;5059490;28;20480;-76
2022/12/26 16:11:22;;;;;;;14.60;4.67;;;6.60;99.90;;;;;;5076747;28;20453;-78
2022/12/26 16:13:53;;;;;;;10.13;3.90;;;6.60;99.90;;;;;;5077488;28;20435;-77
2022/12/26 16:16:34;;;;;;;17.00;4.50;;;6.60;99.90;;;;;;5077539;28;20468;-78
2022/12/26 16:19:21;;;;;;;18.57;5.40;;;6.60;99.90;;;;;;5077935;28;20414;-78
2022/12/26 16:24:42;;;;;;;16.90;4.50;;;6.50;99.90;;;;;;5059095;28;20475;-77
2022/12/26 16:27:25;;;;;;;12.97;4.30;;;6.50;99.90;;;;;;5077121;28;20436;-78
2022/12/26 16:29:58;;;;;;;10.80;4.30;;;6.40;99.90;;;;;;5077357;28;20428;-77
2022/12/26 16:32:30;;;;;;;14.23;4.30;;;6.40;99.90;;;;;;5059109;28;20448;-78
2022/12/26 16:34:59;;;;;;;16.50;8.63;;;6.40;99.90;;;;;;5076597;28;20468;-77
2022/12/26 16:37:29;;;;;;;15.53;5.20;;;6.40;99.90;;;;;;5058054;28;20948;-77
2022/12/26 16:40:16;;;;;;;11.63;4.57;;;6.30;99.90;;;;;;5057716;28;20797;-78
2022/12/26 16:42:53;;;;;;;15.33;5.50;;;6.30;99.90;;;;;;5057761;28;20469;-77
2022/12/26 16:45:23;;;;;;;13.60;4.10;;;6.20;99.90;;;;;;5075744;28;20465;-77
2022/12/26 16:47:52;;;;;;;10.47;4.30;;;6.20;99.90;;;;;;5074522;28;20464;-77
2022/12/26 16:50:24;;;;;;;13.80;6.60;;;6.20;99.90;;;;;;5075690;28;20477;-77
2022/12/26 16:53:08;;;;;;;13.10;4.87;;;6.20;99.90;;;;;;5057919;28;20448;-77
2022/12/26 16:55:43;;;;;;;10.57;5.60;;;6.10;99.90;;;;;;5058109;28;20522;-77
2022/12/26 16:58:23;;;;;;;15.43;5.17;;;6.10;99.90;;;;;;5057671;28;20930;-77